sensor_id;sensor_type;location;lat;lon;timestamp;P1;durP1;ratioP1;P2;durP2;ratioP2
3261;SDS011;1643;47.746;9.000;2022-08-18T00:00:14;4.57;;;3.80;;
3261;SDS011;1643;47.746;9.000;2022-08-18T00:02:40;3.80;;;3.50;;
3261;SDS011;1643;47.746;9.000;2022-08-18T00:05:08;3.97;;;3.67;;
3261;SDS011;1643;47.746;9.000;2022-08-18T00:07:36;4.70;;;3.90;;
3261;SDS011;1643;47.746;9.000;2022-08-18T00:10:03;4.80;;;4.40;;
3261;SDS011;1643;47.746;9.000;2022-08-18T00:12:34;5.53;;;4.50;;
3261;SDS011;1643;47.746;9.000;2022-08-18T00:15:03;6.57;;;3.93;;
3261;SDS011;1643;47.746;9.000;2022-08-18T00:17:31;4.23;;;3.80;;
3261;SDS011;1643;47.746;9.000;2022-08-18T00:19:58;4.30;;;3.90;;
3261;SDS011;1643;47.746;9.000;2022-08-18T00:22:24;4.20;;;3.80;;
3261;SDS011;1643;47.746;9.000;2022-08-18T00:24:50;4.60;;;4.20;;
3261;SDS011;1643;47.746;9.000;2022-08-18T00:27:18;4.77;;;4.37;;
3261;SDS011;1643;47.746;9.000;2022-08-18T00:29:46;4.00;;;3.60;;
3261;SDS011;1643;47.746;9.000;2022-08-18T00:32:16;4.47;;;4.00;;
3261;SDS011;1643;47.746;9.000;2022-08-18T00:34:51;4.00;;;3.70;;
3261;SDS011;1643;47.746;9.000;2022-08-18T00:37:17;4.87;;;4.37;;
3261;SDS011;1643;47.746;9.000;2022-08-18T00:39:43;4.87;;;4.27;;
3261;SDS011;1643;47.746;9.000;2022-08-18T00:42:16;6.13;;;3.80;;
3261;SDS011;1643;47.746;9.000;2022-08-18T00:44:46;4.90;;;4.40;;
3261;SDS011;1643;47.746;9.000;2022-08-18T00:47:11;4.93;;;4.53;;
3261;SDS011;1643;47.746;9.000;2022-08-18T00:49:37;4.27;;;3.87;;
3261;SDS011;1643;47.746;9.000;2022-08-18T00:52:06;4.70;;;4.30;;
3261;SDS011;1643;47.746;9.000;2022-08-18T00:54:35;4.83;;;4.10;;
3261;SDS011;1643;47.746;9.000;2022-08-18T00:57:04;4.60;;;4.10;;
3261;SDS011;1643;47.746;9.000;2022-08-18T00:59:45;4.10;;;3.80;;
3261;SDS011;1643;47.746;9.000;2022-08-18T01:02:15;4.40;;;4.07;;
3261;SDS011;1643;47.746;9.000;2022-08-18T01:07:54;5.20;;;4.80;;
3261;SDS011;1643;47.746;9.000;2022-08-18T01:10:20;5.63;;;4.80;;
3261;SDS011;1643;47.746;9.000;2022-08-18T01:12:49;4.20;;;3.90;;
3261;SDS011;1643;47.746;9.000;2022-08-18T01:15:20;5.23;;;4.47;;
3261;SDS011;1643;47.746;9.000;2022-08-18T01:17:47;4.90;;;4.40;;
3261;SDS011;1643;47.746;9.000;2022-08-18T01:20:33;5.17;;;4.67;;
3261;SDS011;1643;47.746;9.000;2022-08-18T01:23:22;6.27;;;4.80;;
3261;SDS011;1643;47.746;9.000;2022-08-18T01:25:48;5.60;;;5.10;;
3261;SDS011;1643;47.746;9.000;2022-08-18T01:28:28;4.53;;;4.23;;
3261;SDS011;1643;47.746;9.000;2022-08-18T01:30:57;6.10;;;4.73;;
3261;SDS011;1643;47.746;9.000;2022-08-18T01:33:24;4.20;;;3.80;;
3261;SDS011;1643;47.746;9.000;2022-08-18T01:36:21;4.73;;;4.33;;
3261;SDS011;1643;47.746;9.000;2022-08-18T01:38:49;5.00;;;4.57;;
3261;SDS011;1643;47.746;9.000;2022-08-18T01:41:16;5.10;;;4.60;;
3261;SDS011;1643;47.746;9.000;2022-08-18T01:43:45;6.13;;;4.37;;
3261;SDS011;1643;47.746;9.000;2022-08-18T01:46:11;5.03;;;4.53;;
3261;SDS011;1643;47.746;9.000;2022-08-18T01:48:37;6.50;;;4.10;;
3261;SDS011;1643;47.746;9.000;2022-08-18T01:51:04;4.50;;;4.10;;
3261;SDS011;1643;47.746;9.000;2022-08-18T01:53:32;4.83;;;4.33;;
3261;SDS011;1643;47.746;9.000;2022-08-18T01:55:58;4.97;;;4.57;;
3261;SDS011;1643;47.746;9.000;2022-08-18T01:58:24;4.50;;;4.10;;
3261;SDS011;1643;47.746;9.000;2022-08-18T02:00:53;5.00;;;4.50;;
3261;SDS011;1643;47.746;9.000;2022-08-18T02:03:22;4.20;;;3.90;;
3261;SDS011;1643;47.746;9.000;2022-08-18T02:05:51;5.20;;;4.70;;
3261;SDS011;1643;47.746;9.000;2022-08-18T02:08:24;4.53;;;4.13;;
3261;SDS011;1643;47.746;9.000;2022-08-18T02:10:50;5.40;;;4.80;;
3261;SDS011;1643;47.746;9.000;2022-08-18T02:13:16;4.30;;;3.90;;
3261;SDS011;1643;47.746;9.000;2022-08-18T02:15:42;5.50;;;5.00;;
3261;SDS011;1643;47.746;9.000;2022-08-18T02:18:14;7.53;;;5.13;;
3261;SDS011;1643;47.746;9.000;2022-08-18T02:20:43;5.03;;;4.53;;
3261;SDS011;1643;47.746;9.000;2022-08-18T02:23:09;4.70;;;4.37;;
3261;SDS011;1643;47.746;9.000;2022-08-18T02:25:35;5.60;;;4.87;;
3261;SDS011;1643;47.746;9.000;2022-08-18T02:28:02;5.03;;;4.60;;
3261;SDS011;1643;47.746;9.000;2022-08-18T02:30:29;4.77;;;4.37;;
3261;SDS011;1643;47.746;9.000;2022-08-18T02:32:56;5.37;;;4.87;;
3261;SDS011;1643;47.746;9.000;2022-08-18T02:35:23;7.90;;;4.77;;
3261;SDS011;1643;47.746;9.000;2022-08-18T02:37:49;6.30;;;4.80;;
3261;SDS011;1643;47.746;9.000;2022-08-18T02:40:15;5.10;;;4.70;;
3261;SDS011;1643;47.746;9.000;2022-08-18T02:42:42;5.40;;;4.90;;
3261;SDS011;1643;47.746;9.000;2022-08-18T02:45:08;4.87;;;4.43;;
3261;SDS011;1643;47.746;9.000;2022-08-18T02:47:35;5.27;;;4.73;;
3261;SDS011;1643;47.746;9.000;2022-08-18T02:50:00;6.10;;;5.50;;
3261;SDS011;1643;47.746;9.000;2022-08-18T02:52:26;5.80;;;5.20;;
3261;SDS011;1643;47.746;9.000;2022-08-18T02:54:58;5.43;;;4.93;;
3261;SDS011;1643;47.746;9.000;2022-08-18T02:57:25;6.73;;;4.93;;
3261;SDS011;1643;47.746;9.000;2022-08-18T02:59:52;7.87;;;4.80;;
3261;SDS011;1643;47.746;9.000;2022-08-18T03:02:18;5.60;;;4.70;;
3261;SDS011;1643;47.746;9.000;2022-08-18T03:04:44;5.70;;;5.07;;
3261;SDS011;1643;47.746;9.000;2022-08-18T03:07:11;5.40;;;4.40;;
3261;SDS011;1643;47.746;9.000;2022-08-18T03:09:36;4.73;;;4.43;;
3261;SDS011;1643;47.746;9.000;2022-08-18T03:12:03;5.60;;;5.10;;
3261;SDS011;1643;47.746;9.000;2022-08-18T03:14:31;5.00;;;4.60;;
3261;SDS011;1643;47.746;9.000;2022-08-18T03:16:58;5.47;;;4.97;;
3261;SDS011;1643;47.746;9.000;2022-08-18T03:19:25;5.60;;;5.10;;
3261;SDS011;1643;47.746;9.000;2022-08-18T03:21:52;5.10;;;4.70;;
3261;SDS011;1643;47.746;9.000;2022-08-18T03:24:19;5.30;;;4.80;;
3261;SDS011;1643;47.746;9.000;2022-08-18T03:26:45;4.93;;;4.53;;
3261;SDS011;1643;47.746;9.000;2022-08-18T03:29:11;6.07;;;5.47;;
3261;SDS011;1643;47.746;9.000;2022-08-18T03:31:37;6.00;;;5.47;;
3261;SDS011;1643;47.746;9.000;2022-08-18T03:34:06;5.67;;;5.17;;
3261;SDS011;1643;47.746;9.000;2022-08-18T03:36:32;5.53;;;5.03;;
3261;SDS011;1643;47.746;9.000;2022-08-18T03:39:04;6.40;;;5.80;;
3261;SDS011;1643;47.746;9.000;2022-08-18T03:41:33;6.80;;;5.80;;
3261;SDS011;1643;47.746;9.000;2022-08-18T03:44:00;5.77;;;5.17;;
3261;SDS011;1643;47.746;9.000;2022-08-18T03:46:26;6.20;;;5.60;;
3261;SDS011;1643;47.746;9.000;2022-08-18T03:48:52;4.90;;;4.50;;
3261;SDS011;1643;47.746;9.000;2022-08-18T03:51:23;5.33;;;4.90;;
3261;SDS011;1643;47.746;9.000;2022-08-18T03:53:51;7.07;;;5.13;;
3261;SDS011;1643;47.746;9.000;2022-08-18T03:56:19;7.93;;;6.70;;
3261;SDS011;1643;47.746;9.000;2022-08-18T03:58:48;6.07;;;5.47;;
3261;SDS011;1643;47.746;9.000;2022-08-18T04:01:23;6.37;;;5.33;;
3261;SDS011;1643;47.746;9.000;2022-08-18T04:03:52;6.90;;;5.70;;
3261;SDS011;1643;47.746;9.000;2022-08-18T04:06:24;6.77;;;6.17;;
3261;SDS011;1643;47.746;9.000;2022-08-18T04:09:02;5.70;;;5.20;;
3261;SDS011;1643;47.746;9.000;2022-08-18T04:11:30;6.77;;;5.20;;
3261;SDS011;1643;47.746;9.000;2022-08-18T04:13:57;6.03;;;5.40;;
3261;SDS011;1643;47.746;9.000;2022-08-18T04:16:23;5.43;;;4.93;;
3261;SDS011;1643;47.746;9.000;2022-08-18T04:18:53;8.13;;;5.80;;
3261;SDS011;1643;47.746;9.000;2022-08-18T04:21:20;5.70;;;5.20;;
3261;SDS011;1643;47.746;9.000;2022-08-18T04:23:47;7.50;;;5.47;;
3261;SDS011;1643;47.746;9.000;2022-08-18T04:26:13;6.20;;;5.60;;
3261;SDS011;1643;47.746;9.000;2022-08-18T04:28:38;5.70;;;5.20;;
3261;SDS011;1643;47.746;9.000;2022-08-18T04:31:10;6.57;;;5.93;;
3261;SDS011;1643;47.746;9.000;2022-08-18T04:33:38;6.20;;;5.60;;
3261;SDS011;1643;47.746;9.000;2022-08-18T04:36:08;6.80;;;6.07;;
3261;SDS011;1643;47.746;9.000;2022-08-18T04:38:36;6.27;;;5.77;;
3261;SDS011;1643;47.746;9.000;2022-08-18T04:41:03;6.13;;;5.40;;
3261;SDS011;1643;47.746;9.000;2022-08-18T04:43:29;6.53;;;5.67;;
3261;SDS011;1643;47.746;9.000;2022-08-18T04:45:56;6.20;;;5.70;;
3261;SDS011;1643;47.746;9.000;2022-08-18T04:48:27;7.33;;;6.27;;
3261;SDS011;1643;47.746;9.000;2022-08-18T04:50:57;5.60;;;5.10;;
3261;SDS011;1643;47.746;9.000;2022-08-18T04:53:27;7.13;;;5.30;;
3261;SDS011;1643;47.746;9.000;2022-08-18T04:56:19;6.00;;;5.40;;
3261;SDS011;1643;47.746;9.000;2022-08-18T04:58:54;6.90;;;6.30;;
3261;SDS011;1643;47.746;9.000;2022-08-18T05:01:28;6.00;;;5.50;;
3261;SDS011;1643;47.746;9.000;2022-08-18T05:03:56;5.50;;;5.00;;
3261;SDS011;1643;47.746;9.000;2022-08-18T05:06:26;7.40;;;5.73;;
3261;SDS011;1643;47.746;9.000;2022-08-18T05:08:53;5.73;;;5.20;;
3261;SDS011;1643;47.746;9.000;2022-08-18T05:11:21;5.33;;;4.93;;
3261;SDS011;1643;47.746;9.000;2022-08-18T05:13:48;5.73;;;5.20;;
3261;SDS011;1643;47.746;9.000;2022-08-18T05:16:16;6.80;;;5.40;;
3261;SDS011;1643;47.746;9.000;2022-08-18T05:18:41;6.77;;;5.93;;
3261;SDS011;1643;47.746;9.000;2022-08-18T05:21:07;6.83;;;5.87;;
3261;SDS011;1643;47.746;9.000;2022-08-18T05:23:41;7.80;;;5.00;;
3261;SDS011;1643;47.746;9.000;2022-08-18T05:26:08;5.60;;;5.10;;
3261;SDS011;1643;47.746;9.000;2022-08-18T05:28:34;5.23;;;4.73;;
3261;SDS011;1643;47.746;9.000;2022-08-18T05:31:05;4.90;;;4.40;;
3261;SDS011;1643;47.746;9.000;2022-08-18T05:33:32;5.43;;;4.93;;
3261;SDS011;1643;47.746;9.000;2022-08-18T05:36:00;7.23;;;5.40;;
3261;SDS011;1643;47.746;9.000;2022-08-18T05:41:10;5.80;;;4.97;;
3261;SDS011;1643;47.746;9.000;2022-08-18T05:43:50;6.47;;;5.77;;
3261;SDS011;1643;47.746;9.000;2022-08-18T05:46:16;7.53;;;5.73;;
3261;SDS011;1643;47.746;9.000;2022-08-18T05:48:41;7.07;;;6.37;;
3261;SDS011;1643;47.746;9.000;2022-08-18T05:51:17;8.73;;;6.63;;
3261;SDS011;1643;47.746;9.000;2022-08-18T05:53:50;6.70;;;5.90;;
3261;SDS011;1643;47.746;9.000;2022-08-18T05:56:35;8.07;;;6.40;;
3261;SDS011;1643;47.746;9.000;2022-08-18T05:59:26;5.90;;;5.30;;
3261;SDS011;1643;47.746;9.000;2022-08-18T06:02:03;6.87;;;5.40;;
3261;SDS011;1643;47.746;9.000;2022-08-18T06:04:50;5.63;;;5.13;;
3261;SDS011;1643;47.746;9.000;2022-08-18T06:07:26;6.00;;;5.40;;
3261;SDS011;1643;47.746;9.000;2022-08-18T06:10:07;6.43;;;5.30;;
3261;SDS011;1643;47.746;9.000;2022-08-18T06:12:35;6.13;;;5.53;;
3261;SDS011;1643;47.746;9.000;2022-08-18T06:20:33;6.87;;;6.20;;
3261;SDS011;1643;47.746;9.000;2022-08-18T06:29:07;7.83;;;7.03;;
3261;SDS011;1643;47.746;9.000;2022-08-18T06:37:07;6.70;;;6.10;;
3261;SDS011;1643;47.746;9.000;2022-08-18T06:39:45;6.57;;;5.97;;
3261;SDS011;1643;47.746;9.000;2022-08-18T06:42:15;6.67;;;6.07;;
3261;SDS011;1643;47.746;9.000;2022-08-18T06:44:51;9.00;;;6.10;;
3261;SDS011;1643;47.746;9.000;2022-08-18T06:47:39;7.87;;;6.60;;
3261;SDS011;1643;47.746;9.000;2022-08-18T06:52:51;7.83;;;7.00;;
3261;SDS011;1643;47.746;9.000;2022-08-18T06:55:17;7.20;;;6.10;;
3261;SDS011;1643;47.746;9.000;2022-08-18T06:57:59;7.23;;;6.47;;
3261;SDS011;1643;47.746;9.000;2022-08-18T07:00:28;7.13;;;6.50;;
3261;SDS011;1643;47.746;9.000;2022-08-18T07:05:35;5.80;;;5.20;;
3261;SDS011;1643;47.746;9.000;2022-08-18T07:08:19;6.47;;;5.70;;
3261;SDS011;1643;47.746;9.000;2022-08-18T07:13:45;12.00;;;6.63;;
3261;SDS011;1643;47.746;9.000;2022-08-18T07:16:29;6.77;;;6.07;;
3261;SDS011;1643;47.746;9.000;2022-08-18T07:19:09;8.73;;;7.30;;
3261;SDS011;1643;47.746;9.000;2022-08-18T07:21:41;8.17;;;6.13;;
3261;SDS011;1643;47.746;9.000;2022-08-18T07:27:01;8.20;;;6.80;;
3261;SDS011;1643;47.746;9.000;2022-08-18T07:29:34;6.97;;;6.33;;
3261;SDS011;1643;47.746;9.000;2022-08-18T07:32:07;7.43;;;6.63;;
3261;SDS011;1643;47.746;9.000;2022-08-18T07:34:40;7.50;;;6.80;;
3261;SDS011;1643;47.746;9.000;2022-08-18T07:37:22;7.30;;;6.57;;
3261;SDS011;1643;47.746;9.000;2022-08-18T07:39:58;7.07;;;6.37;;
3261;SDS011;1643;47.746;9.000;2022-08-18T07:45:37;8.13;;;7.33;;
3261;SDS011;1643;47.746;9.000;2022-08-18T07:50:39;6.33;;;5.73;;
3261;SDS011;1643;47.746;9.000;2022-08-18T08:02:30;8.80;;;7.40;;
3261;SDS011;1643;47.746;9.000;2022-08-18T08:14:09;7.40;;;6.70;;
3261;SDS011;1643;47.746;9.000;2022-08-18T08:22:15;8.37;;;6.93;;
3261;SDS011;1643;47.746;9.000;2022-08-18T08:25:03;7.97;;;7.17;;
3261;SDS011;1643;47.746;9.000;2022-08-18T08:30:09;7.93;;;6.97;;
3261;SDS011;1643;47.746;9.000;2022-08-18T08:35:27;8.30;;;7.40;;
3261;SDS011;1643;47.746;9.000;2022-08-18T08:37:59;10.87;;;8.17;;
3261;SDS011;1643;47.746;9.000;2022-08-18T08:40:40;9.40;;;8.00;;
3261;SDS011;1643;47.746;9.000;2022-08-18T08:43:29;8.53;;;7.60;;
3261;SDS011;1643;47.746;9.000;2022-08-18T08:48:26;7.40;;;6.70;;
3261;SDS011;1643;47.746;9.000;2022-08-18T08:53:48;15.70;;;7.97;;
3261;SDS011;1643;47.746;9.000;2022-08-18T08:56:27;10.13;;;8.90;;
3261;SDS011;1643;47.746;9.000;2022-08-18T08:59:11;8.90;;;7.90;;
3261;SDS011;1643;47.746;9.000;2022-08-18T09:13:04;7.93;;;7.07;;
3261;SDS011;1643;47.746;9.000;2022-08-18T09:18:29;7.43;;;6.40;;
3261;SDS011;1643;47.746;9.000;2022-08-18T09:38:04;8.73;;;7.40;;
3261;SDS011;1643;47.746;9.000;2022-08-18T09:40:58;7.70;;;7.00;;
3261;SDS011;1643;47.746;9.000;2022-08-18T09:44:04;7.37;;;6.33;;
3261;SDS011;1643;47.746;9.000;2022-08-18T09:51:46;9.80;;;8.80;;
3261;SDS011;1643;47.746;9.000;2022-08-18T09:54:17;8.53;;;7.63;;
3261;SDS011;1643;47.746;9.000;2022-08-18T10:01:56;8.03;;;7.23;;
3261;SDS011;1643;47.746;9.000;2022-08-18T10:04:24;7.80;;;7.10;;
3261;SDS011;1643;47.746;9.000;2022-08-18T10:07:12;8.30;;;7.50;;
3261;SDS011;1643;47.746;9.000;2022-08-18T10:20:55;6.73;;;6.10;;
3261;SDS011;1643;47.746;9.000;2022-08-18T10:31:30;5.90;;;5.40;;
3261;SDS011;1643;47.746;9.000;2022-08-18T10:34:35;8.70;;;6.30;;
3261;SDS011;1643;47.746;9.000;2022-08-18T10:37:01;6.67;;;6.07;;
3261;SDS011;1643;47.746;9.000;2022-08-18T10:44:42;6.77;;;6.13;;
3261;SDS011;1643;47.746;9.000;2022-08-18T10:47:19;6.17;;;5.57;;
3261;SDS011;1643;47.746;9.000;2022-08-18T10:49:54;6.27;;;5.67;;
3261;SDS011;1643;47.746;9.000;2022-08-18T10:58:27;6.50;;;5.90;;
3261;SDS011;1643;47.746;9.000;2022-08-18T11:06:18;7.23;;;6.50;;
3261;SDS011;1643;47.746;9.000;2022-08-18T11:08:49;5.90;;;5.30;;
3261;SDS011;1643;47.746;9.000;2022-08-18T11:11:23;7.20;;;5.50;;
3261;SDS011;1643;47.746;9.000;2022-08-18T11:19:41;6.20;;;5.60;;
3261;SDS011;1643;47.746;9.000;2022-08-18T11:22:25;5.00;;;4.60;;
3261;SDS011;1643;47.746;9.000;2022-08-18T11:24:53;5.40;;;4.90;;
3261;SDS011;1643;47.746;9.000;2022-08-18T11:27:22;5.30;;;4.80;;
3261;SDS011;1643;47.746;9.000;2022-08-18T11:29:50;6.10;;;5.60;;
3261;SDS011;1643;47.746;9.000;2022-08-18T11:39:58;5.40;;;4.93;;
3261;SDS011;1643;47.746;9.000;2022-08-18T11:42:30;5.50;;;4.73;;
3261;SDS011;1643;47.746;9.000;2022-08-18T11:45:17;6.30;;;5.70;;
3261;SDS011;1643;47.746;9.000;2022-08-18T11:53:33;5.87;;;5.37;;
3261;SDS011;1643;47.746;9.000;2022-08-18T11:58:40;5.13;;;4.73;;
3261;SDS011;1643;47.746;9.000;2022-08-18T12:01:07;4.93;;;4.63;;
3261;SDS011;1643;47.746;9.000;2022-08-18T12:03:38;5.10;;;4.70;;
3261;SDS011;1643;47.746;9.000;2022-08-18T12:06:10;5.13;;;4.70;;
3261;SDS011;1643;47.746;9.000;2022-08-18T12:09:34;5.10;;;4.70;;
3261;SDS011;1643;47.746;9.000;2022-08-18T12:14:20;4.90;;;4.50;;
3261;SDS011;1643;47.746;9.000;2022-08-18T12:16:48;4.40;;;4.00;;
3261;SDS011;1643;47.746;9.000;2022-08-18T12:19:14;4.60;;;4.20;;
3261;SDS011;1643;47.746;9.000;2022-08-18T12:21:43;4.77;;;4.00;;
3261;SDS011;1643;47.746;9.000;2022-08-18T12:26:50;4.47;;;4.17;;
3261;SDS011;1643;47.746;9.000;2022-08-18T12:29:16;5.57;;;5.07;;
3261;SDS011;1643;47.746;9.000;2022-08-18T12:31:43;4.70;;;4.30;;
3261;SDS011;1643;47.746;9.000;2022-08-18T12:34:10;5.23;;;4.73;;
3261;SDS011;1643;47.746;9.000;2022-08-18T12:36:35;5.43;;;4.93;;
3261;SDS011;1643;47.746;9.000;2022-08-18T12:39:01;5.00;;;4.60;;
3261;SDS011;1643;47.746;9.000;2022-08-18T12:41:27;4.90;;;4.50;;
3261;SDS011;1643;47.746;9.000;2022-08-18T12:43:53;4.23;;;3.93;;
3261;SDS011;1643;47.746;9.000;2022-08-18T12:46:19;5.00;;;3.90;;
3261;SDS011;1643;47.746;9.000;2022-08-18T12:48:45;5.30;;;4.87;;
3261;SDS011;1643;47.746;9.000;2022-08-18T12:51:11;5.13;;;4.73;;
3261;SDS011;1643;47.746;9.000;2022-08-18T12:53:38;5.27;;;4.77;;
3261;SDS011;1643;47.746;9.000;2022-08-18T12:56:11;4.37;;;4.00;;
3261;SDS011;1643;47.746;9.000;2022-08-18T12:58:41;4.40;;;4.00;;
3261;SDS011;1643;47.746;9.000;2022-08-18T13:01:06;4.30;;;4.00;;
3261;SDS011;1643;47.746;9.000;2022-08-18T13:03:32;3.97;;;3.67;;
3261;SDS011;1643;47.746;9.000;2022-08-18T13:05:58;4.47;;;4.07;;
3261;SDS011;1643;47.746;9.000;2022-08-18T13:08:24;4.47;;;4.10;;
3261;SDS011;1643;47.746;9.000;2022-08-18T13:10:49;5.63;;;4.40;;
3261;SDS011;1643;47.746;9.000;2022-08-18T13:13:16;4.40;;;4.10;;
3261;SDS011;1643;47.746;9.000;2022-08-18T13:15:43;3.90;;;3.60;;
3261;SDS011;1643;47.746;9.000;2022-08-18T13:18:10;4.03;;;3.63;;
3261;SDS011;1643;47.746;9.000;2022-08-18T13:20:37;4.70;;;4.17;;
3261;SDS011;1643;47.746;9.000;2022-08-18T13:23:03;4.67;;;4.27;;
3261;SDS011;1643;47.746;9.000;2022-08-18T13:25:30;5.57;;;5.07;;
3261;SDS011;1643;47.746;9.000;2022-08-18T13:27:56;5.00;;;4.60;;
3261;SDS011;1643;47.746;9.000;2022-08-18T13:30:22;4.53;;;3.47;;
3261;SDS011;1643;47.746;9.000;2022-08-18T13:32:48;4.83;;;4.43;;
3261;SDS011;1643;47.746;9.000;2022-08-18T13:35:14;4.40;;;4.00;;
3261;SDS011;1643;47.746;9.000;2022-08-18T13:37:39;4.80;;;4.40;;
3261;SDS011;1643;47.746;9.000;2022-08-18T13:40:06;4.47;;;4.07;;
3261;SDS011;1643;47.746;9.000;2022-08-18T13:42:40;4.93;;;4.47;;
3261;SDS011;1643;47.746;9.000;2022-08-18T13:45:12;4.57;;;4.17;;
3261;SDS011;1643;47.746;9.000;2022-08-18T13:47:42;5.30;;;4.63;;
3261;SDS011;1643;47.746;9.000;2022-08-18T13:50:09;5.53;;;5.03;;
3261;SDS011;1643;47.746;9.000;2022-08-18T13:52:36;4.67;;;4.27;;
3261;SDS011;1643;47.746;9.000;2022-08-18T13:55:04;4.60;;;4.20;;
3261;SDS011;1643;47.746;9.000;2022-08-18T13:57:32;4.43;;;4.10;;
3261;SDS011;1643;47.746;9.000;2022-08-18T13:59:58;8.97;;;5.30;;
3261;SDS011;1643;47.746;9.000;2022-08-18T14:02:23;5.63;;;5.17;;
3261;SDS011;1643;47.746;9.000;2022-08-18T14:04:49;5.43;;;4.93;;
3261;SDS011;1643;47.746;9.000;2022-08-18T14:07:15;5.00;;;4.50;;
3261;SDS011;1643;47.746;9.000;2022-08-18T14:09:43;4.60;;;4.20;;
3261;SDS011;1643;47.746;9.000;2022-08-18T14:12:22;4.87;;;4.20;;
3261;SDS011;1643;47.746;9.000;2022-08-18T14:14:48;5.10;;;4.70;;
3261;SDS011;1643;47.746;9.000;2022-08-18T14:17:19;5.23;;;4.83;;
3261;SDS011;1643;47.746;9.000;2022-08-18T14:19:45;4.90;;;4.50;;
3261;SDS011;1643;47.746;9.000;2022-08-18T14:22:29;4.80;;;4.40;;
3261;SDS011;1643;47.746;9.000;2022-08-18T14:25:13;4.90;;;4.50;;
3261;SDS011;1643;47.746;9.000;2022-08-18T14:27:58;4.60;;;4.30;;
3261;SDS011;1643;47.746;9.000;2022-08-18T14:30:24;5.07;;;4.70;;
3261;SDS011;1643;47.746;9.000;2022-08-18T14:32:50;6.17;;;5.43;;
3261;SDS011;1643;47.746;9.000;2022-08-18T14:35:19;5.37;;;4.97;;
3261;SDS011;1643;47.746;9.000;2022-08-18T14:37:46;6.10;;;5.60;;
3261;SDS011;1643;47.746;9.000;2022-08-18T14:40:12;5.47;;;4.97;;
3261;SDS011;1643;47.746;9.000;2022-08-18T14:42:38;7.03;;;6.27;;
3261;SDS011;1643;47.746;9.000;2022-08-18T14:45:06;6.33;;;5.67;;
3261;SDS011;1643;47.746;9.000;2022-08-18T14:47:32;7.83;;;5.70;;
3261;SDS011;1643;47.746;9.000;2022-08-18T14:49:58;6.70;;;6.10;;
3261;SDS011;1643;47.746;9.000;2022-08-18T14:52:24;5.47;;;4.97;;
3261;SDS011;1643;47.746;9.000;2022-08-18T14:54:51;6.17;;;5.63;;
3261;SDS011;1643;47.746;9.000;2022-08-18T14:57:17;6.17;;;5.67;;
3261;SDS011;1643;47.746;9.000;2022-08-18T14:59:43;7.27;;;5.73;;
3261;SDS011;1643;47.746;9.000;2022-08-18T15:02:09;6.87;;;6.27;;
3261;SDS011;1643;47.746;9.000;2022-08-18T15:04:36;7.93;;;7.07;;
3261;SDS011;1643;47.746;9.000;2022-08-18T15:07:02;6.63;;;6.03;;
3261;SDS011;1643;47.746;9.000;2022-08-18T15:09:28;7.20;;;5.73;;
3261;SDS011;1643;47.746;9.000;2022-08-18T15:11:56;6.00;;;5.40;;
3261;SDS011;1643;47.746;9.000;2022-08-18T15:14:23;5.87;;;5.37;;
3261;SDS011;1643;47.746;9.000;2022-08-18T15:16:55;6.07;;;5.50;;
3261;SDS011;1643;47.746;9.000;2022-08-18T15:19:22;7.30;;;5.80;;
3261;SDS011;1643;47.746;9.000;2022-08-18T15:21:48;5.90;;;5.00;;
3261;SDS011;1643;47.746;9.000;2022-08-18T15:24:32;7.40;;;6.20;;
3261;SDS011;1643;47.746;9.000;2022-08-18T15:27:16;5.70;;;5.10;;
3261;SDS011;1643;47.746;9.000;2022-08-18T15:29:42;6.80;;;6.20;;
3261;SDS011;1643;47.746;9.000;2022-08-18T15:32:08;6.97;;;5.90;;
3261;SDS011;1643;47.746;9.000;2022-08-18T15:34:39;6.37;;;5.87;;
3261;SDS011;1643;47.746;9.000;2022-08-18T15:37:07;6.30;;;5.67;;
3261;SDS011;1643;47.746;9.000;2022-08-18T15:39:33;6.10;;;5.60;;
3261;SDS011;1643;47.746;9.000;2022-08-18T15:41:59;8.90;;;5.83;;
3261;SDS011;1643;47.746;9.000;2022-08-18T15:44:24;7.27;;;6.63;;
3261;SDS011;1643;47.746;9.000;2022-08-18T15:46:50;6.77;;;5.80;;
3261;SDS011;1643;47.746;9.000;2022-08-18T15:49:17;6.00;;;5.50;;
3261;SDS011;1643;47.746;9.000;2022-08-18T15:51:43;7.77;;;6.80;;
3261;SDS011;1643;47.746;9.000;2022-08-18T15:54:09;5.93;;;5.33;;
3261;SDS011;1643;47.746;9.000;2022-08-18T15:56:35;6.13;;;5.63;;
3261;SDS011;1643;47.746;9.000;2022-08-18T15:59:01;5.60;;;5.10;;
3261;SDS011;1643;47.746;9.000;2022-08-18T16:01:31;6.10;;;5.40;;
3261;SDS011;1643;47.746;9.000;2022-08-18T16:04:03;6.43;;;5.03;;
3261;SDS011;1643;47.746;9.000;2022-08-18T16:06:30;5.93;;;5.33;;
3261;SDS011;1643;47.746;9.000;2022-08-18T16:08:57;5.70;;;5.17;;
3261;SDS011;1643;47.746;9.000;2022-08-18T16:11:23;4.57;;;4.23;;
3261;SDS011;1643;47.746;9.000;2022-08-18T16:13:49;5.40;;;4.90;;
3261;SDS011;1643;47.746;9.000;2022-08-18T16:16:19;6.20;;;5.70;;
3261;SDS011;1643;47.746;9.000;2022-08-18T16:18:47;5.57;;;4.70;;
3261;SDS011;1643;47.746;9.000;2022-08-18T16:21:15;4.80;;;4.40;;
3261;SDS011;1643;47.746;9.000;2022-08-18T16:23:44;4.70;;;4.30;;
3261;SDS011;1643;47.746;9.000;2022-08-18T16:26:12;5.00;;;4.60;;
3261;SDS011;1643;47.746;9.000;2022-08-18T16:28:39;4.60;;;4.20;;
3261;SDS011;1643;47.746;9.000;2022-08-18T16:31:06;5.00;;;4.60;;
3261;SDS011;1643;47.746;9.000;2022-08-18T16:33:32;4.77;;;4.37;;
3261;SDS011;1643;47.746;9.000;2022-08-18T16:36:02;5.00;;;4.50;;
3261;SDS011;1643;47.746;9.000;2022-08-18T16:38:30;4.20;;;3.90;;
3261;SDS011;1643;47.746;9.000;2022-08-18T16:41:01;6.10;;;5.03;;
3261;SDS011;1643;47.746;9.000;2022-08-18T16:43:35;6.23;;;5.17;;
3261;SDS011;1643;47.746;9.000;2022-08-18T16:46:01;7.37;;;6.07;;
3261;SDS011;1643;47.746;9.000;2022-08-18T16:48:28;5.70;;;5.10;;
3261;SDS011;1643;47.746;9.000;2022-08-18T16:50:55;6.03;;;5.53;;
3261;SDS011;1643;47.746;9.000;2022-08-18T16:53:21;7.20;;;5.93;;
3261;SDS011;1643;47.746;9.000;2022-08-18T16:55:47;7.80;;;7.00;;
3261;SDS011;1643;47.746;9.000;2022-08-18T16:58:13;8.47;;;7.17;;
3261;SDS011;1643;47.746;9.000;2022-08-18T17:00:58;7.30;;;6.67;;
3261;SDS011;1643;47.746;9.000;2022-08-18T17:03:42;10.10;;;9.10;;
3261;SDS011;1643;47.746;9.000;2022-08-18T17:06:26;8.80;;;7.20;;
3261;SDS011;1643;47.746;9.000;2022-08-18T17:08:55;8.37;;;7.57;;
3261;SDS011;1643;47.746;9.000;2022-08-18T17:11:22;7.83;;;7.10;;
3261;SDS011;1643;47.746;9.000;2022-08-18T17:13:51;8.30;;;7.00;;
3261;SDS011;1643;47.746;9.000;2022-08-18T17:16:19;8.23;;;6.50;;
3261;SDS011;1643;47.746;9.000;2022-08-18T17:18:45;8.17;;;7.47;;
3261;SDS011;1643;47.746;9.000;2022-08-18T17:21:12;9.03;;;8.13;;
3261;SDS011;1643;47.746;9.000;2022-08-18T17:23:40;11.30;;;9.40;;
3261;SDS011;1643;47.746;9.000;2022-08-18T17:26:07;10.53;;;8.13;;
3261;SDS011;1643;47.746;9.000;2022-08-18T17:28:44;8.30;;;7.50;;
3261;SDS011;1643;47.746;9.000;2022-08-18T17:31:20;9.40;;;8.50;;
3261;SDS011;1643;47.746;9.000;2022-08-18T17:33:48;9.70;;;8.53;;
3261;SDS011;1643;47.746;9.000;2022-08-18T17:36:20;9.60;;;8.70;;
3261;SDS011;1643;47.746;9.000;2022-08-18T17:38:53;8.50;;;7.73;;
3261;SDS011;1643;47.746;9.000;2022-08-18T17:41:24;10.50;;;8.80;;
3261;SDS011;1643;47.746;9.000;2022-08-18T17:43:50;9.37;;;8.47;;
3261;SDS011;1643;47.746;9.000;2022-08-18T17:46:22;10.13;;;7.90;;
3261;SDS011;1643;47.746;9.000;2022-08-18T17:48:54;8.60;;;7.33;;
3261;SDS011;1643;47.746;9.000;2022-08-18T17:51:36;9.07;;;8.17;;
3261;SDS011;1643;47.746;9.000;2022-08-18T17:56:48;8.33;;;7.43;;
3261;SDS011;1643;47.746;9.000;2022-08-18T17:59:22;8.63;;;7.77;;
3261;SDS011;1643;47.746;9.000;2022-08-18T18:02:07;8.63;;;7.73;;
3261;SDS011;1643;47.746;9.000;2022-08-18T18:04:39;7.23;;;6.53;;
3261;SDS011;1643;47.746;9.000;2022-08-18T18:07:17;8.00;;;7.20;;
3261;SDS011;1643;47.746;9.000;2022-08-18T18:09:53;8.50;;;7.67;;
3261;SDS011;1643;47.746;9.000;2022-08-18T18:12:27;8.23;;;7.43;;
3261;SDS011;1643;47.746;9.000;2022-08-18T18:14:58;7.70;;;7.00;;
3261;SDS011;1643;47.746;9.000;2022-08-18T18:17:27;10.73;;;8.80;;
3261;SDS011;1643;47.746;9.000;2022-08-18T18:20:40;8.07;;;7.27;;
3261;SDS011;1643;47.746;9.000;2022-08-18T18:25:41;9.37;;;8.47;;
3261;SDS011;1643;47.746;9.000;2022-08-18T18:28:22;10.57;;;9.47;;
3261;SDS011;1643;47.746;9.000;2022-08-18T18:30:51;8.63;;;7.80;;
3261;SDS011;1643;47.746;9.000;2022-08-18T18:33:17;10.40;;;7.40;;
3261;SDS011;1643;47.746;9.000;2022-08-18T18:35:50;11.30;;;8.77;;
3261;SDS011;1643;47.746;9.000;2022-08-18T18:41:32;7.80;;;7.00;;